Time;durP1;ratioP1;P1;durP2;ratioP2;P2;SDS_P1;SDS_P2;PMS_P1;PMS_P2;Temp;Humidity;BMP_temperature;BMP_pressure;BME280_temperature;BME280_humidity;BME280_pressure;Samples;Min_cycle;Max_cycle;Signal;HPM_P1;HPM_P2
2021/04/28 00:00:08;;;;;;;12.48;7.93;;;10.60;54.10;;;9.17;52.30;94933.94;4990293;28;20085;-65
2021/04/28 00:02:34;;;;;;;10.25;7.55;;;10.50;54.30;;;9.16;52.16;94927.88;4971933;28;20120;-65
2021/04/28 00:05:00;;;;;;;11.75;7.90;;;10.60;54.60;;;9.10;52.26;94928.72;4973482;28;20486;-65
2021/04/28 00:07:26;;;;;;;10.75;8.40;;;10.50;54.40;;;9.04;52.38;94932.16;4973479;28;20050;-65
2021/04/28 00:09:51;;;;;;;14.73;8.75;;;10.50;54.60;;;8.98;52.71;94930.38;4974010;28;20526;-65
2021/04/28 00:12:17;;;;;;;11.75;8.00;;;10.40;55.00;;;8.94;52.77;94929.19;4989485;28;20034;-65
2021/04/28 00:14:43;;;;;;;13.52;8.52;;;10.30;55.10;;;8.89;52.71;94931.63;4990002;28;20179;-66
2021/04/28 00:17:09;;;;;;;11.68;8.32;;;10.20;55.20;;;8.81;52.76;94916.09;4989492;28;20038;-65
2021/04/28 00:19:35;;;;;;;10.65;8.32;;;10.20;55.10;;;8.74;52.78;94923.19;4973209;28;20614;-65
2021/04/28 00:22:00;;;;;;;12.25;8.32;;;10.10;55.30;;;8.71;53.01;94921.78;4989593;28;20042;-65
2021/04/28 00:24:26;;;;;;;16.23;8.45;;;10.10;55.30;;;8.65;52.89;94925.22;5005782;28;20694;-65
2021/04/28 00:26:52;;;;;;;11.65;8.73;;;10.10;55.50;;;8.64;53.94;94925.44;4989951;28;20498;-65
2021/04/28 00:29:18;;;;;;;12.10;8.43;;;10.10;55.60;;;8.59;53.12;94921.59;4973780;28;20034;-65
2021/04/28 00:31:43;;;;;;;14.23;8.70;;;10.00;55.80;;;8.54;53.35;94918.78;4989801;28;20030;-65
2021/04/28 00:34:09;;;;;;;11.77;8.65;;;10.00;55.70;;;8.48;53.45;94919.63;4969398;28;20041;-65
2021/04/28 00:36:35;;;;;;;10.73;8.13;;;10.00;55.70;;;8.43;53.36;94922.06;4984527;28;20442;-65
2021/04/28 00:39:01;;;;;;;12.30;8.40;;;9.90;55.80;;;8.40;53.77;94922.47;4989192;28;20072;-65
2021/04/28 00:41:26;;;;;;;12.43;8.80;;;9.90;55.80;;;8.40;54.14;94917.22;4973128;28;20037;-65
2021/04/28 00:43:52;;;;;;;12.55;8.57;;;9.90;55.90;;;8.39;54.04;94913.00;4957013;28;20069;-65
2021/04/28 00:46:18;;;;;;;9.85;8.07;;;9.80;55.80;;;8.38;53.99;94911.38;4956618;28;20409;-65
2021/04/28 00:48:44;;;;;;;14.40;8.48;;;9.80;55.80;;;8.35;53.82;94911.75;4973398;28;20113;-65
2021/04/28 00:51:09;;;;;;;10.57;8.32;;;9.80;56.00;;;8.35;54.30;94914.38;4972896;28;20125;-65
2021/04/28 00:53:35;;;;;;;13.93;8.75;;;9.80;56.00;;;8.34;54.53;94907.53;4973197;28;20049;-65
2021/04/28 00:56:01;;;;;;;12.05;8.27;;;9.80;56.00;;;8.33;54.00;94905.09;4989105;28;20199;-65
2021/04/28 00:58:27;;;;;;;12.90;8.05;;;9.80;56.10;;;8.32;54.00;94909.53;4972555;28;20040;-64
2021/04/28 01:00:53;;;;;;;14.60;8.82;;;9.80;56.00;;;8.32;54.09;94914.75;4956781;28;20122;-65
2021/04/28 01:03:27;;;;;;;11.05;8.55;;;9.80;56.20;;;8.34;55.79;94906.72;4972918;28;20033;-65
2021/04/28 01:05:57;;;;;;;11.85;8.80;;;9.80;56.30;;;8.31;54.30;94913.16;4958655;28;20064;-65
2021/04/28 01:08:23;;;;;;;12.23;9.10;;;9.80;56.70;;;8.27;54.71;94912.75;4972867;28;20040;-65
2021/04/28 01:10:49;;;;;;;11.15;9.15;;;9.70;57.10;;;8.24;54.65;94915.00;4989295;28;20043;-65
2021/04/28 01:13:15;;;;;;;11.23;8.63;;;9.70;57.20;;;8.18;55.27;94913.19;4953497;28;20031;-65
2021/04/28 01:15:41;;;;;;;14.00;9.18;;;9.60;57.30;;;8.14;55.29;94917.19;4987022;28;20030;-65
2021/04/28 01:18:07;;;;;;;11.27;8.75;;;9.60;57.20;;;8.12;55.38;94913.97;4959668;28;20025;-65
2021/04/28 01:20:36;;;;;;;17.40;8.77;;;9.60;57.30;;;8.09;55.51;94909.16;4960038;28;20037;-65
2021/04/28 01:23:03;;;;;;;12.98;9.20;;;9.60;57.80;;;8.06;55.31;94917.41;4976977;28;20506;-65
2021/04/28 01:25:29;;;;;;;12.10;9.10;;;9.50;57.80;;;8.03;55.17;94909.97;4992387;28;20417;-64
2021/04/28 01:28:24;;;;;;;13.32;9.05;;;9.50;57.80;;;7.98;56.36;94907.97;5008835;28;20043;-65
2021/04/28 01:31:02;;;;;;;16.40;9.25;;;9.40;57.20;;;7.89;56.74;94903.91;4946778;28;20092;-65
2021/04/28 01:33:45;;;;;;;12.85;8.75;;;9.30;57.20;;;7.82;57.30;94916.19;4977406;28;20077;-65
2021/04/28 01:36:22;;;;;;;12.82;9.13;;;9.20;57.70;;;7.77;56.58;94910.78;4976370;28;20042;-65
2021/04/28 01:38:51;;;;;;;13.85;9.70;;;9.20;58.10;;;7.72;56.79;94911.38;4977237;28;20117;-65
2021/04/28 01:41:17;;;;;;;13.90;9.85;;;9.10;58.10;;;7.64;55.43;94906.31;4960491;28;20077;-65
2021/04/28 01:43:43;;;;;;;13.60;10.05;;;9.00;58.40;;;7.52;56.16;94900.06;4976125;28;20050;-65
2021/04/28 01:46:09;;;;;;;13.63;9.82;;;8.90;58.30;;;7.44;56.42;94900.25;4976363;28;20030;-65
2021/04/28 01:48:35;;;;;;;15.02;9.70;;;8.80;58.70;;;7.37;55.67;94901.03;4975648;28;20038;-65
2021/04/28 01:51:01;;;;;;;12.45;9.90;;;8.80;58.90;;;7.35;55.94;94900.44;4975775;28;20045;-65
2021/04/28 01:53:26;;;;;;;13.07;9.95;;;8.80;59.30;;;7.32;56.76;94902.66;4989777;28;20038;-64
2021/04/28 01:55:54;;;;;;;13.15;9.75;;;8.80;59.30;;;7.27;56.79;94899.81;4974781;28;20037;-65
2021/04/28 01:58:20;;;;;;;12.57;9.32;;;8.70;59.20;;;7.22;56.78;94905.63;4972483;28;20034;-65
2021/04/28 02:00:46;;;;;;;13.60;10.00;;;8.70;59.60;;;7.18;56.82;94901.81;4991382;28;20026;-65
2021/04/28 02:03:12;;;;;;;13.98;9.57;;;8.60;59.50;;;7.14;57.34;94902.41;4992290;28;20272;-65
2021/04/28 02:05:37;;;;;;;13.35;9.63;;;8.60;59.60;;;7.09;57.35;94908.22;4975966;28;20058;-65
2021/04/28 02:08:04;;;;;;;11.77;9.45;;;8.60;59.80;;;7.09;57.27;94900.38;4959284;28;20113;-65
2021/04/28 02:10:30;;;;;;;11.93;9.02;;;8.60;60.20;;;7.07;57.72;94903.19;4974966;28;20622;-65
2021/04/28 02:12:56;;;;;;;13.65;10.10;;;8.60;59.90;;;7.05;57.63;94901.78;5007532;28;20057;-64
2021/04/28 02:15:23;;;;;;;12.80;9.45;;;8.50;60.00;;;7.03;57.69;94895.94;4976088;28;20378;-65
2021/04/28 02:17:54;;;;;;;12.30;9.70;;;8.60;60.10;;;7.01;58.59;94890.88;4972042;28;20034;-65
2021/04/28 02:20:20;;;;;;;14.15;9.23;;;8.50;59.70;;;6.99;57.42;94897.31;4975024;28;20026;-65
2021/04/28 02:22:46;;;;;;;12.93;9.77;;;8.50;59.60;;;6.98;57.96;94886.03;4956249;28;20037;-65
2021/04/28 02:25:12;;;;;;;11.98;9.45;;;8.50;59.60;;;6.96;58.61;94887.25;4978664;28;20669;-65
2021/04/28 02:27:38;;;;;;;11.23;9.27;;;8.50;59.90;;;6.94;57.46;94889.25;4958703;28;20384;-65
2021/04/28 02:30:10;;;;;;;12.65;9.38;;;8.50;59.90;;;6.96;59.33;94892.47;4991504;28;20425;-65
2021/04/28 02:32:35;;;;;;;13.27;9.88;;;8.50;59.80;;;6.97;58.36;94888.84;4991201;28;20033;-64
2021/04/28 02:35:01;;;;;;;14.00;10.50;;;8.50;59.90;;;6.97;57.99;94894.91;4975371;28;20056;-65
2021/04/28 02:37:28;;;;;;;11.88;9.68;;;8.50;60.10;;;6.98;58.11;94900.94;4975274;28;20034;-65
2021/04/28 02:40:08;;;;;;;12.75;9.40;;;8.50;60.40;;;6.96;59.91;94895.09;4991104;28;20034;-65
2021/04/28 02:42:34;;;;;;;11.82;9.40;;;8.40;60.00;;;6.95;58.68;94896.91;4975468;28;20042;-64
2021/04/28 02:45:00;;;;;;;12.85;9.60;;;8.50;60.30;;;6.95;58.22;94890.88;4958831;28;20034;-65
2021/04/28 02:47:27;;;;;;;11.73;9.52;;;8.40;60.30;;;6.92;58.64;94886.84;4975383;28;20536;-65
2021/04/28 02:49:53;;;;;;;12.23;10.00;;;8.40;60.30;;;6.87;58.92;94889.25;4975818;28;20243;-65
2021/04/28 02:52:20;;;;;;;12.63;9.77;;;8.30;60.50;;;6.82;58.35;94891.63;4959720;28;20061;-65
2021/04/28 02:54:46;;;;;;;11.27;9.38;;;8.40;60.00;;;6.80;58.67;94883.19;4975903;28;20497;-65
2021/04/28 02:57:11;;;;;;;12.90;9.75;;;8.30;59.90;;;6.76;58.32;94877.53;4972175;28;20084;-65
2021/04/28 02:59:37;;;;;;;18.42;9.30;;;8.20;60.10;;;6.72;58.73;94876.31;4975726;28;20034;-65
2021/04/28 03:02:06;;;;;;;12.65;10.05;;;8.20;60.10;;;6.69;59.42;94881.13;4958940;28;20041;-65
2021/04/28 03:04:31;;;;;;;13.43;10.38;;;8.10;60.30;;;6.63;59.07;94877.47;4975507;28;20113;-65
2021/04/28 03:06:57;;;;;;;12.55;10.13;;;8.10;60.30;;;6.59;58.55;94875.47;4991247;28;20030;-64
2021/04/28 03:09:23;;;;;;;11.13;9.77;;;8.10;60.30;;;6.54;58.79;94878.63;4975418;28;20030;-65
2021/04/28 03:11:48;;;;;;;14.20;10.20;;;8.00;60.50;;;6.50;58.87;94879.22;4991325;28;20042;-64
2021/04/28 03:14:14;;;;;;;13.05;10.38;;;8.00;60.90;;;6.47;59.46;94877.00;4959242;28;20097;-65
2021/04/28 03:16:40;;;;;;;13.60;9.63;;;8.00;61.40;;;6.44;59.02;94878.19;5009087;28;20037;-65
2021/04/28 03:19:06;;;;;;;15.88;10.82;;;7.90;61.30;;;6.41;59.23;94875.97;4958725;28;20030;-64
2021/04/28 03:21:37;;;;;;;13.85;11.00;;;7.90;61.30;;;6.37;60.47;94872.94;4979676;28;20129;-64
2021/04/28 03:24:04;;;;;;;13.77;10.55;;;7.90;61.30;;;6.33;59.27;94873.50;4963964;28;20153;-67
2021/04/28 03:26:30;;;;;;;12.77;10.60;;;7.80;61.30;;;6.28;59.39;94873.28;4955926;28;20058;-66
2021/04/28 03:28:56;;;;;;;13.32;10.90;;;7.80;61.40;;;6.24;59.85;94877.28;4989252;28;20038;-69
2021/04/28 03:31:22;;;;;;;12.30;10.35;;;7.80;61.30;;;6.19;59.18;94869.22;4971025;28;20026;-68
2021/04/28 03:33:48;;;;;;;14.43;10.73;;;7.70;61.40;;;6.17;60.22;94881.66;4974389;28;20037;-72
2021/04/28 03:36:13;;;;;;;12.50;10.82;;;7.70;61.40;;;6.13;59.52;94879.44;4957760;28;20073;-70
2021/04/28 03:38:39;;;;;;;13.07;11.00;;;7.70;61.70;;;6.11;60.37;94876.22;4973315;28;20125;-65
2021/04/28 03:41:05;;;;;;;14.02;11.20;;;7.60;61.90;;;6.09;60.32;94878.19;4956306;28;20497;-64
2021/04/28 03:43:31;;;;;;;12.85;10.55;;;7.60;62.00;;;6.08;60.25;94879.16;4973762;28;20060;-64
2021/04/28 03:45:57;;;;;;;13.95;10.68;;;7.60;62.30;;;6.08;60.18;94878.38;4999420;28;20048;-65
2021/04/28 03:48:22;;;;;;;15.80;11.40;;;7.60;62.40;;;6.08;60.86;94884.38;4954532;28;20430;-64
2021/04/28 03:50:48;;;;;;;14.57;11.48;;;7.60;62.70;;;6.06;60.39;94880.38;4997972;28;20552;-66
2021/04/28 03:53:14;;;;;;;14.55;10.88;;;7.60;62.60;;;6.08;61.01;94884.38;4990451;28;20117;-64
2021/04/28 03:55:40;;;;;;;16.52;11.75;;;7.60;62.70;;;6.10;61.09;94887.63;4990075;28;20026;-64
2021/04/28 03:58:06;;;;;;;14.00;10.98;;;7.70;62.90;;;6.09;60.43;94891.22;4973252;28;20117;-64
2021/04/28 04:00:31;;;;;;;16.13;11.55;;;7.70;62.40;;;6.07;61.41;94887.19;5006597;28;20117;-64
2021/04/28 04:02:57;;;;;;;14.85;11.60;;;7.60;62.60;;;6.07;60.75;94893.22;4973937;28;20105;-64
2021/04/28 04:05:23;;;;;;;12.55;10.48;;;7.60;62.70;;;6.05;60.79;94892.59;4958248;28;20058;-64
2021/04/28 04:07:50;;;;;;;13.23;11.25;;;7.60;62.60;;;6.03;60.83;94889.38;4958022;28;20034;-65
2021/04/28 04:10:16;;;;;;;14.23;11.38;;;7.60;62.70;;;6.03;61.20;94892.00;4989816;28;20038;-66
2021/04/28 04:12:41;;;;;;;15.18;11.35;;;7.70;62.80;;;6.02;61.75;94887.78;4974767;28;20053;-65
2021/04/28 04:15:08;;;;;;;11.80;10.55;;;7.70;62.80;;;6.05;61.18;94894.41;4958086;28;20037;-65
2021/04/28 04:17:33;;;;;;;13.50;10.75;;;7.70;62.90;;;6.05;61.22;94890.00;4957961;28;20058;-64
2021/04/28 04:19:59;;;;;;;16.13;11.77;;;7.70;62.80;;;6.03;60.75;94892.00;4967518;28;20619;-64
2021/04/28 04:22:25;;;;;;;13.85;11.00;;;7.70;62.80;;;6.07;61.50;94895.84;4992878;28;20038;-65
2021/04/28 04:24:51;;;;;;;15.10;10.88;;;7.70;62.90;;;6.05;62.03;94890.00;4954672;28;20077;-63
2021/04/28 04:27:17;;;;;;;15.85;11.82;;;7.70;62.80;;;6.04;61.41;94893.59;4968723;28;20042;-64
2021/04/28 04:29:43;;;;;;;15.27;11.40;;;7.70;62.90;;;6.04;61.60;94893.59;4974659;28;20034;-65
2021/04/28 04:32:08;;;;;;;14.23;11.65;;;7.70;62.70;;;6.05;61.69;94903.06;4957078;28;20041;-67
2021/04/28 04:34:34;;;;;;;14.75;11.77;;;7.70;62.80;;;6.06;61.37;94896.81;4989516;28;20038;-64
2021/04/28 04:37:00;;;;;;;16.60;11.90;;;7.70;62.90;;;6.06;61.76;94896.81;4973928;28;20068;-64
2021/04/28 04:39:26;;;;;;;14.90;11.65;;;7.70;63.10;;;6.08;62.00;94900.06;5006550;28;20107;-64
2021/04/28 04:41:51;;;;;;;18.92;12.63;;;7.80;63.20;;;6.07;61.69;94898.44;5006662;28;20042;-64
2021/04/28 04:44:17;;;;;;;14.32;12.48;;;7.70;63.20;;;6.07;61.85;94898.44;4973562;28;20041;-66
2021/04/28 04:46:43;;;;;;;14.57;11.32;;;7.70;63.50;;;6.07;62.04;94898.44;4973863;28;20078;-65
2021/04/28 04:49:09;;;;;;;16.55;11.68;;;7.70;63.40;;;6.05;61.69;94900.44;4989850;28;20033;-64
2021/04/28 04:51:34;;;;;;;20.70;12.40;;;7.70;63.50;;;6.07;61.96;94901.06;4975728;28;20246;-65
2021/04/28 04:54:00;;;;;;;16.50;12.18;;;7.80;63.40;;;6.09;62.49;94901.66;4976659;28;20065;-67
2021/04/28 04:56:26;;;;;;;14.18;12.02;;;7.80;63.50;;;6.12;61.81;94908.34;4974021;28;20041;-68
2021/04/28 04:58:51;;;;;;;17.65;13.10;;;7.90;63.50;;;6.14;62.24;94907.16;4960581;28;20073;-69
2021/04/28 05:01:17;;;;;;;17.55;12.80;;;8.00;63.50;;;6.17;62.14;94910.38;4967398;28;20117;-63
2021/04/28 05:03:43;;;;;;;16.75;13.00;;;8.10;63.70;;;6.18;63.04;94915.41;5008711;28;20084;-63
2021/04/28 05:06:09;;;;;;;18.02;13.50;;;8.10;63.90;;;6.24;63.27;94906.00;4975474;28;20038;-63
2021/04/28 05:08:34;;;;;;;17.75;12.88;;;8.10;64.10;;;6.30;63.35;94910.44;4976138;28;20053;-72
2021/04/28 05:11:00;;;;;;;18.30;12.75;;;8.20;64.30;;;6.37;63.53;94904.28;4993785;28;20034;-69
2021/04/28 05:13:26;;;;;;;18.90;12.77;;;8.30;63.70;;;6.43;62.99;94905.31;4976368;28;20034;-70
2021/04/28 05:15:52;;;;;;;16.08;12.20;;;8.40;63.50;;;6.53;63.05;94897.91;5011019;28;20040;-65
2021/04/28 05:18:17;;;;;;;16.55;12.25;;;8.60;63.30;;;6.65;63.04;94906.84;4959195;28;20038;-64
2021/04/28 05:20:43;;;;;;;16.50;12.30;;;8.70;62.60;;;6.75;63.27;94896.81;4959732;28;20045;-67
2021/04/28 05:23:09;;;;;;;15.38;11.70;;;8.90;62.50;;;6.89;62.70;94908.16;4991657;28;20058;-64
2021/04/28 05:25:35;;;;;;;25.40;12.05;;;9.10;61.70;;;7.04;62.76;94894.94;4977788;28;20121;-64
2021/04/28 05:28:01;;;;;;;14.90;11.65;;;9.20;61.00;;;7.22;62.38;94903.00;4992662;28;20042;-64
2021/04/28 05:30:27;;;;;;;14.50;12.10;;;9.50;60.50;;;7.38;62.27;94899.22;4993773;28;20042;-64
2021/04/28 05:32:53;;;;;;;19.05;12.25;;;9.70;59.80;;;7.56;61.96;94904.72;4975596;28;20049;-68
2021/04/28 05:35:18;;;;;;;13.60;10.00;;;9.90;59.10;;;7.74;61.89;94901.50;4960560;28;20053;-66
2021/04/28 05:37:44;;;;;;;16.30;10.05;;;10.10;57.70;;;7.89;60.56;94902.09;4975426;28;20081;-65
2021/04/28 05:40:11;;;;;;;15.13;10.32;;;10.20;56.80;;;8.05;60.17;94893.03;4983909;28;20050;-65
2021/04/28 05:42:37;;;;;;;14.90;9.77;;;10.40;56.20;;;8.19;60.24;94893.84;4995939;28;20041;-66
2021/04/28 05:45:07;;;;;;;13.52;10.30;;;10.50;55.50;;;8.33;59.25;94907.72;4959160;28;20042;-68
2021/04/28 05:47:33;;;;;;;13.30;9.73;;;10.60;55.40;;;8.44;59.23;94902.69;4996994;28;20034;-68
2021/04/28 05:49:59;;;;;;;13.77;10.18;;;10.70;55.00;;;8.46;59.51;94905.91;4980536;28;20364;-63
2021/04/28 05:52:25;;;;;;;17.52;10.30;;;10.70;54.90;;;8.57;59.13;94901.84;4960386;28;20113;-65
2021/04/28 05:54:50;;;;;;;13.20;10.15;;;10.80;54.70;;;8.69;58.83;94905.47;4961874;28;20045;-65
2021/04/28 05:57:17;;;;;;;13.68;10.20;;;11.10;54.50;;;8.79;58.44;94911.06;4976160;28;20050;-65
2021/04/28 05:59:43;;;;;;;14.55;9.95;;;11.10;53.80;;;8.91;58.14;94903.38;4961787;28;20034;-65
2021/04/28 06:02:10;;;;;;;15.95;10.20;;;11.40;53.30;;;9.06;57.97;94903.94;4956573;28;20528;-65
2021/04/28 06:04:37;;;;;;;13.65;9.50;;;11.70;52.30;;;9.24;57.52;94897.16;4973199;28;20046;-66
2021/04/28 06:07:03;;;;;;;13.68;9.57;;;12.00;51.60;;;9.37;57.72;94902.34;4970667;28;20122;-65
2021/04/28 06:09:29;;;;;;;17.00;9.75;;;12.10;51.40;;;9.52;57.22;94895.81;4992785;28;20473;-69
2021/04/28 06:11:55;;;;;;;14.40;10.13;;;12.40;50.90;;;9.69;57.17;94892.66;4960485;28;20137;-64
2021/04/28 06:14:20;;;;;;;17.38;10.95;;;12.60;49.90;;;9.83;57.46;94887.09;4992155;28;20063;-65
2021/04/28 06:16:46;;;;;;;13.45;9.57;;;12.70;49.50;;;10.02;56.59;94889.78;4976247;28;20042;-69
2021/04/28 06:19:12;;;;;;;19.23;10.50;;;12.90;48.70;;;10.19;55.73;94888.22;4957964;28;20076;-66
2021/04/28 06:21:38;;;;;;;17.35;10.02;;;13.20;48.20;;;10.32;56.44;94889.94;4988756;28;20064;-69
2021/04/28 06:24:08;;;;;;;13.57;10.07;;;13.20;47.80;;;10.50;54.12;94891.81;4976700;28;20061;-67
2021/04/28 06:26:33;;;;;;;18.52;12.63;;;13.50;47.60;;;10.64;54.81;94890.66;4975475;28;20034;-70
2021/04/28 06:28:59;;;;;;;15.55;9.93;;;13.60;46.60;;;10.75;55.10;94892.53;4976432;28;20688;-70
2021/04/28 06:31:25;;;;;;;15.15;9.85;;;13.90;46.40;;;10.93;55.20;94891.75;4976776;28;20128;-70
2021/04/28 06:33:51;;;;;;;14.10;10.02;;;14.30;45.30;;;11.12;54.24;94895.16;5010017;28;20117;-70
2021/04/28 06:36:17;;;;;;;13.82;9.88;;;14.60;44.80;;;11.29;53.91;94898.78;4975510;28;20053;-65
2021/04/28 06:38:43;;;;;;;14.23;9.70;;;14.80;44.20;;;11.47;53.83;94898.72;4992580;28;20038;-71
2021/04/28 06:41:08;;;;;;;14.20;10.13;;;15.10;43.70;;;11.60;52.93;94890.66;4972882;28;20085;-67
2021/04/28 06:43:34;;;;;;;17.73;10.50;;;15.10;43.00;;;11.76;52.86;94891.03;4981138;28;20149;-73
2021/04/28 06:46:00;;;;;;;15.73;10.80;;;15.20;43.30;;;11.94;52.69;94893.63;4992100;28;20121;-72
2021/04/28 06:48:26;;;;;;;15.65;10.02;;;15.40;43.30;;;12.03;52.54;94897.56;4991947;28;20066;-71
2021/04/28 06:50:52;;;;;;;17.35;10.23;;;15.40;42.70;;;12.22;51.98;94900.88;4956734;28;20023;-62
2021/04/28 06:53:18;;;;;;;18.80;10.82;;;15.60;42.90;;;12.40;51.34;94907.88;4973179;28;20070;-64
2021/04/28 06:55:44;;;;;;;16.27;9.35;;;15.70;42.90;;;12.48;51.94;94894.38;4974851;28;20042;-70
2021/04/28 06:58:10;;;;;;;13.25;9.60;;;15.70;42.50;;;12.56;51.11;94896.66;4975497;28;20026;-71
2021/04/28 07:00:36;;;;;;;12.65;9.27;;;15.70;42.40;;;12.66;51.28;94896.06;4992146;28;20117;-71
2021/04/28 07:03:01;;;;;;;13.90;9.55;;;15.80;42.70;;;12.73;50.34;94902.03;4992444;28;20050;-72
2021/04/28 07:05:27;;;;;;;14.10;9.10;;;15.80;42.60;;;12.79;50.49;94894.00;4975986;28;20030;-68
2021/04/28 07:07:56;;;;;;;15.73;9.30;;;15.80;42.10;;;12.86;49.73;94897.28;5008367;28;20057;-71
2021/04/28 07:10:22;;;;;;;14.13;9.23;;;15.80;42.20;;;12.97;49.75;94895.69;4975602;28;20026;-71
2021/04/28 07:12:48;;;;;;;14.77;9.07;;;15.90;42.50;;;12.99;50.26;94900.72;4992533;28;20510;-71
2021/04/28 07:15:14;;;;;;;11.57;8.75;;;15.90;42.50;;;13.00;49.89;94899.69;4975374;28;20453;-71
2021/04/28 07:17:40;;;;;;;14.77;9.35;;;16.00;42.10;;;13.07;50.45;94897.72;4993340;28;20029;-71
2021/04/28 07:20:08;;;;;;;10.00;8.48;;;16.10;42.80;;;13.16;49.50;94896.34;4968414;28;20039;-72
2021/04/28 07:22:34;;;;;;;14.43;8.35;;;16.10;42.40;;;13.22;49.59;94899.91;4963572;28;20064;-66
2021/04/28 07:25:00;;;;;;;12.38;8.52;;;16.30;41.60;;;13.32;49.01;94900.88;4991764;28;20120;-67
2021/04/28 07:27:26;;;;;;;10.30;8.32;;;16.40;41.60;;;13.37;49.20;94906.28;4991066;28;20489;-67
2021/04/28 07:29:52;;;;;;;14.10;9.07;;;16.50;41.20;;;13.48;48.82;94916.00;4976337;28;20141;-72
2021/04/28 07:32:17;;;;;;;16.42;11.20;;;16.60;41.50;;;13.60;49.40;94901.94;4939939;28;20553;-68
2021/04/28 07:34:43;;;;;;;11.57;9.00;;;16.60;41.50;;;13.67;48.78;94907.88;4962679;28;20582;-67
2021/04/28 07:37:09;;;;;;;12.20;9.10;;;16.80;40.80;;;13.74;48.49;94904.03;4974853;28;20531;-72
2021/04/28 07:39:35;;;;;;;12.57;8.45;;;16.90;40.90;;;13.79;47.91;94912.06;4992169;28;20184;-67
2021/04/28 07:42:01;;;;;;;10.43;8.40;;;17.00;40.70;;;13.92;48.86;94910.16;4975629;28;20042;-71
2021/04/28 07:44:30;;;;;;;12.65;8.50;;;17.20;40.40;;;14.07;47.95;94908.59;4959090;28;20072;-73
2021/04/28 07:46:57;;;;;;;13.15;8.18;;;17.60;40.10;;;14.24;47.51;94902.47;4991212;28;20522;-71
2021/04/28 07:49:23;;;;;;;10.40;8.30;;;17.90;39.10;;;14.37;48.27;94899.53;4991884;28;20075;-74
2021/04/28 07:51:48;;;;;;;13.55;9.40;;;18.10;38.20;;;14.55;47.75;94904.59;4991168;28;20205;-71
2021/04/28 07:54:14;;;;;;;13.70;9.15;;;18.50;38.60;;;14.81;47.55;94905.75;4991498;28;20046;-69
2021/04/28 07:56:40;;;;;;;12.93;8.13;;;18.80;37.40;;;15.06;46.68;94899.97;4974065;28;20056;-73
2021/04/28 07:59:06;;;;;;;16.60;8.05;;;19.10;36.70;;;15.28;47.11;94906.06;5007289;28;20076;-69
2021/04/28 08:01:31;;;;;;;11.55;7.25;;;19.20;36.80;;;15.48;46.63;94902.06;4990953;28;20121;-70
2021/04/28 08:03:59;;;;;;;11.77;7.82;;;19.40;36.10;;;15.64;45.78;94903.06;4974520;28;20061;-69
2021/04/28 08:06:24;;;;;;;12.88;7.57;;;19.50;35.30;;;15.85;45.96;94902.22;4989462;28;20804;-73
2021/04/28 08:08:50;;;;;;;12.45;8.02;;;19.80;35.50;;;16.08;45.34;94901.09;4990909;28;20063;-71
2021/04/28 08:11:16;;;;;;;11.10;8.05;;;20.10;34.80;;;16.38;44.63;94904.00;4974431;28;20500;-75
2021/04/28 08:13:42;;;;;;;11.85;7.45;;;20.50;35.00;;;16.60;44.72;94898.56;4975591;28;20473;-72
2021/04/28 08:16:08;;;;;;;9.38;7.40;;;20.90;34.00;;;16.93;44.38;94902.78;4955070;28;20038;-73
2021/04/28 08:18:34;;;;;;;9.52;7.32;;;21.30;33.70;;;17.21;43.88;94900.81;4955377;28;20037;-71
2021/04/28 08:21:00;;;;;;;10.82;7.70;;;21.70;32.50;;;17.44;44.02;94903.03;4989018;28;20042;-73
2021/04/28 08:23:29;;;;;;;11.63;7.57;;;22.00;33.00;;;17.73;43.58;94906.06;4991515;28;20034;-72
2021/04/28 08:25:57;;;;;;;11.13;7.93;;;22.40;31.70;;;18.00;42.86;94900.50;5006203;28;20062;-67
2021/04/28 08:28:23;;;;;;;16.65;8.15;;;22.70;30.90;;;18.22;42.65;94898.41;4953954;28;20045;-75
2021/04/28 08:30:49;;;;;;;11.50;7.70;;;23.00;30.60;;;18.48;42.14;94895.72;4972580;28;20459;-68
2021/04/28 08:33:15;;;;;;;12.13;8.40;;;23.30;30.60;;;18.73;41.86;94893.06;4968052;28;20585;-73
2021/04/28 08:35:41;;;;;;;15.73;8.23;;;23.50;30.30;;;18.99;41.23;94896.47;4972314;28;20505;-74
2021/04/28 08:38:07;;;;;;;10.63;7.45;;;23.70;30.10;;;19.19;41.25;94895.59;4989207;28;20040;-65
2021/04/28 08:40:33;;;;;;;12.00;7.65;;;23.90;29.20;;;19.38;40.24;94893.94;4989113;28;20122;-67
2021/04/28 08:42:58;;;;;;;10.80;7.70;;;24.20;28.90;;;19.67;40.00;94896.75;4956859;28;20622;-69
2021/04/28 08:45:24;;;;;;;14.95;7.68;;;24.50;29.30;;;19.88;40.07;94897.44;4958078;28;20041;-66
2021/04/28 08:47:51;;;;;;;10.95;7.90;;;24.60;28.30;;;19.96;39.07;94904.09;4988162;28;20041;-66
2021/04/28 08:50:16;;;;;;;10.90;7.80;;;24.40;28.60;;;20.10;39.45;94902.38;4969688;28;20038;-64
2021/04/28 08:52:42;;;;;;;14.18;7.85;;;24.50;28.50;;;20.28;38.67;94900.91;4987265;28;20057;-72
2021/04/28 08:55:09;;;;;;;13.02;7.72;;;24.40;28.40;;;20.46;38.88;94897.59;4986628;28;20054;-71
2021/04/28 08:57:35;;;;;;;14.23;8.50;;;24.60;28.30;;;20.66;38.07;94900.09;4981712;28;20530;-73
2021/04/28 09:00:05;;;;;;;16.42;8.35;;;24.80;28.40;;;20.80;37.21;94897.53;4974641;28;20037;-71
2021/04/28 09:02:31;;;;;;;11.80;8.13;;;24.60;28.10;;;20.94;37.19;94892.34;4975041;28;20057;-74
2021/04/28 09:05:11;;;;;;;12.90;7.95;;;24.80;28.60;;;21.16;36.02;94889.16;4991719;28;20045;-74
2021/04/28 09:07:42;;;;;;;10.02;7.32;;;25.20;28.10;;;21.32;35.99;94891.41;4958373;28;20042;-71
2021/04/28 09:10:16;;;;;;;12.93;7.95;;;25.30;28.00;;;21.43;36.11;94878.69;4974105;28;20034;-66
2021/04/28 09:12:57;;;;;;;10.80;8.02;;;25.40;27.00;;;21.49;34.75;94872.19;4971368;28;20756;-67
2021/04/28 09:15:33;;;;;;;9.30;7.60;;;25.50;27.10;;;21.70;35.21;94880.75;4963515;28;20358;-69
2021/04/28 09:17:59;;;;;;;9.80;7.60;;;25.60;27.80;;;21.93;35.51;94879.88;4990130;28;20034;-69
2021/04/28 09:20:31;;;;;;;8.48;6.97;;;26.00;26.60;;;22.16;35.84;94866.72;4956947;28;20069;-68
2021/04/28 09:23:07;;;;;;;9.93;7.28;;;26.20;27.00;;;22.37;33.97;94878.72;4972467;28;20139;-71
2021/04/28 09:25:44;;;;;;;11.70;7.18;;;26.40;26.70;;;22.46;32.65;94876.97;5006797;28;20557;-67
2021/04/28 09:28:31;;;;;;;11.45;7.65;;;26.50;25.20;;;22.66;32.74;94872.38;4968654;28;20060;-66
2021/04/28 09:31:06;;;;;;;10.60;7.65;;;26.60;25.60;;;22.87;33.41;94862.91;4989955;28;20042;-76
2021/04/28 09:33:40;;;;;;;10.55;8.10;;;26.70;26.30;;;23.07;32.35;94867.88;5008209;28;20037;-66
2021/04/28 09:36:10;;;;;;;12.60;7.85;;;27.20;25.30;;;23.30;33.60;94859.91;5007236;28;20607;-65
2021/04/28 09:39:02;;;;;;;8.43;7.10;;;27.40;24.90;;;23.55;32.20;94855.94;5010897;28;20442;-68
2021/04/28 09:41:40;;;;;;;13.45;7.90;;;27.70;24.80;;;23.78;31.07;94855.72;4979134;28;20026;-72
2021/04/28 09:44:18;;;;;;;11.55;7.03;;;27.80;23.90;;;24.00;31.13;94856.84;5009432;28;20713;-73
2021/04/28 09:47:22;;;;;;;9.48;6.72;;;28.10;23.70;;;24.33;29.59;94842.09;5005814;28;20041;-66
2021/04/28 09:50:04;;;;;;;17.20;7.22;;;28.50;23.10;;;24.60;30.47;94854.59;5004788;28;20034;-70
2021/04/28 09:52:29;;;;;;;11.30;7.68;;;28.80;24.00;;;24.79;31.97;94845.53;4988175;28;20045;-73
2021/04/28 09:55:28;;;;;;;12.57;7.10;;;29.20;24.10;;;25.16;29.06;94850.47;5010730;28;20192;-69
2021/04/28 09:57:54;;;;;;;11.75;7.00;;;29.70;23.10;;;25.33;31.81;94853.19;4938756;28;20058;-71
2021/04/28 10:00:24;;;;;;;10.38;6.55;;;30.10;21.30;;;25.51;28.83;94845.97;4993671;28;20065;-72
2021/04/28 10:03:01;;;;;;;10.50;6.72;;;30.50;20.70;;;25.81;28.33;94851.63;4978924;28;20025;-72
2021/04/28 10:05:32;;;;;;;11.65;6.95;;;31.10;20.40;;;26.00;27.93;94844.00;4994542;28;20125;-73
2021/04/28 10:08:16;;;;;;;9.57;7.57;;;31.40;19.60;;;26.21;27.55;94828.78;4976909;28;20124;-71
2021/04/28 10:10:42;;;;;;;10.18;6.88;;;31.70;19.90;;;26.45;29.38;94830.19;4993330;28;20029;-73
2021/04/28 10:13:08;;;;;;;8.45;7.15;;;32.10;19.90;;;26.66;28.96;94824.91;4984694;28;20029;-69
2021/04/28 10:15:34;;;;;;;10.13;6.85;;;32.40;18.60;;;26.88;28.80;94819.28;5010655;28;20061;-69
2021/04/28 10:18:05;;;;;;;9.30;6.47;;;32.90;17.60;;;27.04;25.80;94833.09;4964584;28;20498;-68